sensor_id;sensor_type;location;lat;lon;timestamp;P1;durP1;ratioP1;P2;durP2;ratioP2
23608;SDS011;11982;50.810;4.442;2023-07-31T00:00:33;24.83;;;7.40;;
23608;SDS011;11982;50.810;4.442;2023-07-31T00:02:59;28.48;;;8.10;;
23608;SDS011;11982;50.810;4.442;2023-07-31T00:05:24;22.92;;;7.85;;
23608;SDS011;11982;50.810;4.442;2023-07-31T00:07:50;32.85;;;7.97;;
23608;SDS011;11982;50.810;4.442;2023-07-31T00:10:16;28.70;;;8.00;;
23608;SDS011;11982;50.810;4.442;2023-07-31T00:12:42;24.10;;;7.82;;
23608;SDS011;11982;50.810;4.442;2023-07-31T00:15:11;23.73;;;7.57;;
23608;SDS011;11982;50.810;4.442;2023-07-31T00:17:38;24.77;;;8.00;;
23608;SDS011;11982;50.810;4.442;2023-07-31T00:20:04;20.92;;;7.50;;
23608;SDS011;11982;50.810;4.442;2023-07-31T00:22:30;23.27;;;8.02;;
23608;SDS011;11982;50.810;4.442;2023-07-31T00:24:56;25.48;;;7.75;;
23608;SDS011;11982;50.810;4.442;2023-07-31T00:27:22;23.63;;;7.63;;
23608;SDS011;11982;50.810;4.442;2023-07-31T00:29:48;22.10;;;8.23;;
23608;SDS011;11982;50.810;4.442;2023-07-31T00:32:13;21.63;;;7.40;;
23608;SDS011;11982;50.810;4.442;2023-07-31T00:34:39;21.25;;;7.55;;
23608;SDS011;11982;50.810;4.442;2023-07-31T00:37:05;24.23;;;8.73;;
23608;SDS011;11982;50.810;4.442;2023-07-31T00:39:31;25.10;;;8.02;;
23608;SDS011;11982;50.810;4.442;2023-07-31T00:41:58;28.50;;;8.80;;
23608;SDS011;11982;50.810;4.442;2023-07-31T00:44:24;26.50;;;7.80;;
23608;SDS011;11982;50.810;4.442;2023-07-31T00:46:50;21.50;;;8.82;;
23608;SDS011;11982;50.810;4.442;2023-07-31T00:49:15;25.02;;;8.48;;
23608;SDS011;11982;50.810;4.442;2023-07-31T00:51:41;22.17;;;8.07;;
23608;SDS011;11982;50.810;4.442;2023-07-31T00:54:07;29.00;;;8.60;;
23608;SDS011;11982;50.810;4.442;2023-07-31T00:56:33;25.50;;;8.23;;
23608;SDS011;11982;50.810;4.442;2023-07-31T00:58:59;28.67;;;7.70;;
23608;SDS011;11982;50.810;4.442;2023-07-31T01:01:24;27.00;;;8.60;;
23608;SDS011;11982;50.810;4.442;2023-07-31T01:03:50;24.83;;;7.75;;
23608;SDS011;11982;50.810;4.442;2023-07-31T01:09:11;19.13;;;7.45;;
23608;SDS011;11982;50.810;4.442;2023-07-31T01:12:00;32.13;;;8.18;;
23608;SDS011;11982;50.810;4.442;2023-07-31T01:14:28;28.27;;;8.18;;
23608;SDS011;11982;50.810;4.442;2023-07-31T01:16:54;25.38;;;8.60;;
23608;SDS011;11982;50.810;4.442;2023-07-31T01:19:25;23.02;;;7.70;;
23608;SDS011;11982;50.810;4.442;2023-07-31T01:22:03;20.30;;;7.15;;
23608;SDS011;11982;50.810;4.442;2023-07-31T01:27:48;22.33;;;7.60;;
23608;SDS011;11982;50.810;4.442;2023-07-31T01:30:22;22.90;;;8.00;;
23608;SDS011;11982;50.810;4.442;2023-07-31T01:32:52;16.65;;;7.65;;
23608;SDS011;11982;50.810;4.442;2023-07-31T01:35:19;23.38;;;8.77;;
23608;SDS011;11982;50.810;4.442;2023-07-31T01:37:45;25.10;;;8.73;;
23608;SDS011;11982;50.810;4.442;2023-07-31T01:40:11;23.23;;;8.90;;
23608;SDS011;11982;50.810;4.442;2023-07-31T01:42:37;22.15;;;8.55;;
23608;SDS011;11982;50.810;4.442;2023-07-31T01:45:03;25.13;;;8.68;;
23608;SDS011;11982;50.810;4.442;2023-07-31T01:47:29;20.75;;;7.97;;
23608;SDS011;11982;50.810;4.442;2023-07-31T01:49:54;29.92;;;9.38;;
23608;SDS011;11982;50.810;4.442;2023-07-31T01:52:20;22.58;;;9.05;;
23608;SDS011;11982;50.810;4.442;2023-07-31T01:54:46;19.58;;;8.57;;
23608;SDS011;11982;50.810;4.442;2023-07-31T01:57:12;25.77;;;8.73;;
23608;SDS011;11982;50.810;4.442;2023-07-31T01:59:38;22.23;;;9.02;;
23608;SDS011;11982;50.810;4.442;2023-07-31T02:02:03;24.25;;;8.93;;
23608;SDS011;11982;50.810;4.442;2023-07-31T02:04:29;23.33;;;8.52;;
23608;SDS011;11982;50.810;4.442;2023-07-31T02:06:55;23.55;;;9.05;;
23608;SDS011;11982;50.810;4.442;2023-07-31T02:09:21;21.98;;;8.68;;
23608;SDS011;11982;50.810;4.442;2023-07-31T02:11:46;33.35;;;9.82;;
23608;SDS011;11982;50.810;4.442;2023-07-31T02:14:12;21.00;;;9.73;;
23608;SDS011;11982;50.810;4.442;2023-07-31T02:16:38;24.60;;;9.13;;
23608;SDS011;11982;50.810;4.442;2023-07-31T02:19:03;21.73;;;8.80;;
23608;SDS011;11982;50.810;4.442;2023-07-31T02:21:29;23.60;;;9.27;;
23608;SDS011;11982;50.810;4.442;2023-07-31T02:23:55;20.52;;;8.88;;
23608;SDS011;11982;50.810;4.442;2023-07-31T02:26:20;25.27;;;9.85;;
23608;SDS011;11982;50.810;4.442;2023-07-31T02:28:46;19.92;;;8.77;;
23608;SDS011;11982;50.810;4.442;2023-07-31T02:31:12;21.73;;;9.32;;
23608;SDS011;11982;50.810;4.442;2023-07-31T02:33:37;18.40;;;8.88;;
23608;SDS011;11982;50.810;4.442;2023-07-31T02:36:03;19.70;;;9.48;;
23608;SDS011;11982;50.810;4.442;2023-07-31T02:38:29;19.80;;;8.73;;
23608;SDS011;11982;50.810;4.442;2023-07-31T02:40:54;19.13;;;9.55;;
23608;SDS011;11982;50.810;4.442;2023-07-31T02:43:20;16.77;;;8.00;;
23608;SDS011;11982;50.810;4.442;2023-07-31T02:45:50;21.77;;;9.38;;
23608;SDS011;11982;50.810;4.442;2023-07-31T02:48:16;19.23;;;8.30;;
23608;SDS011;11982;50.810;4.442;2023-07-31T02:50:42;16.48;;;8.07;;
23608;SDS011;11982;50.810;4.442;2023-07-31T02:53:08;18.65;;;8.25;;
23608;SDS011;11982;50.810;4.442;2023-07-31T02:55:33;17.05;;;7.55;;
23608;SDS011;11982;50.810;4.442;2023-07-31T02:57:59;16.05;;;7.68;;
23608;SDS011;11982;50.810;4.442;2023-07-31T03:00:25;15.30;;;6.95;;
23608;SDS011;11982;50.810;4.442;2023-07-31T03:02:50;14.38;;;7.47;;
23608;SDS011;11982;50.810;4.442;2023-07-31T03:05:16;15.45;;;7.55;;
23608;SDS011;11982;50.810;4.442;2023-07-31T03:07:42;14.05;;;7.15;;
23608;SDS011;11982;50.810;4.442;2023-07-31T03:10:07;16.45;;;6.85;;
23608;SDS011;11982;50.810;4.442;2023-07-31T03:12:34;16.75;;;7.38;;
23608;SDS011;11982;50.810;4.442;2023-07-31T03:14:59;18.50;;;6.82;;
23608;SDS011;11982;50.810;4.442;2023-07-31T03:17:25;13.82;;;6.90;;
23608;SDS011;11982;50.810;4.442;2023-07-31T03:19:51;13.90;;;7.05;;
23608;SDS011;11982;50.810;4.442;2023-07-31T03:22:16;14.38;;;7.30;;
23608;SDS011;11982;50.810;4.442;2023-07-31T03:24:42;17.90;;;7.25;;
23608;SDS011;11982;50.810;4.442;2023-07-31T03:27:07;12.80;;;7.40;;
23608;SDS011;11982;50.810;4.442;2023-07-31T03:29:33;19.75;;;8.02;;
23608;SDS011;11982;50.810;4.442;2023-07-31T03:31:59;15.70;;;7.43;;
23608;SDS011;11982;50.810;4.442;2023-07-31T03:34:25;20.77;;;7.53;;
23608;SDS011;11982;50.810;4.442;2023-07-31T03:36:50;18.40;;;8.05;;
23608;SDS011;11982;50.810;4.442;2023-07-31T03:39:16;14.55;;;7.75;;
23608;SDS011;11982;50.810;4.442;2023-07-31T03:41:43;17.48;;;7.43;;
23608;SDS011;11982;50.810;4.442;2023-07-31T03:44:09;14.93;;;8.18;;
23608;SDS011;11982;50.810;4.442;2023-07-31T03:46:34;17.25;;;7.40;;
23608;SDS011;11982;50.810;4.442;2023-07-31T03:49:01;15.80;;;7.60;;
23608;SDS011;11982;50.810;4.442;2023-07-31T03:51:26;14.80;;;8.02;;
23608;SDS011;11982;50.810;4.442;2023-07-31T03:53:52;18.08;;;8.05;;
23608;SDS011;11982;50.810;4.442;2023-07-31T03:56:18;14.88;;;8.25;;
23608;SDS011;11982;50.810;4.442;2023-07-31T03:58:43;20.17;;;8.27;;
23608;SDS011;11982;50.810;4.442;2023-07-31T04:01:09;15.98;;;8.27;;
23608;SDS011;11982;50.810;4.442;2023-07-31T04:03:35;22.02;;;8.80;;
23608;SDS011;11982;50.810;4.442;2023-07-31T04:06:01;15.20;;;8.10;;
23608;SDS011;11982;50.810;4.442;2023-07-31T04:08:26;17.92;;;7.72;;
23608;SDS011;11982;50.810;4.442;2023-07-31T04:10:54;17.83;;;8.73;;
23608;SDS011;11982;50.810;4.442;2023-07-31T04:13:22;18.20;;;8.85;;
23608;SDS011;11982;50.810;4.442;2023-07-31T04:15:50;17.55;;;8.45;;
23608;SDS011;11982;50.810;4.442;2023-07-31T04:18:16;16.75;;;8.20;;
23608;SDS011;11982;50.810;4.442;2023-07-31T04:20:42;20.48;;;8.57;;
23608;SDS011;11982;50.810;4.442;2023-07-31T04:23:07;18.05;;;8.23;;
23608;SDS011;11982;50.810;4.442;2023-07-31T04:25:33;15.00;;;7.70;;
23608;SDS011;11982;50.810;4.442;2023-07-31T04:28:00;17.70;;;8.25;;
23608;SDS011;11982;50.810;4.442;2023-07-31T04:30:25;15.35;;;8.45;;
23608;SDS011;11982;50.810;4.442;2023-07-31T04:32:51;18.38;;;8.43;;
23608;SDS011;11982;50.810;4.442;2023-07-31T04:35:17;19.73;;;8.40;;
23608;SDS011;11982;50.810;4.442;2023-07-31T04:37:43;21.90;;;8.68;;
23608;SDS011;11982;50.810;4.442;2023-07-31T04:40:11;22.05;;;8.68;;
23608;SDS011;11982;50.810;4.442;2023-07-31T04:42:37;20.25;;;9.10;;
23608;SDS011;11982;50.810;4.442;2023-07-31T04:45:02;18.02;;;9.10;;
23608;SDS011;11982;50.810;4.442;2023-07-31T04:47:28;22.80;;;8.68;;
23608;SDS011;11982;50.810;4.442;2023-07-31T04:49:54;15.70;;;7.82;;
23608;SDS011;11982;50.810;4.442;2023-07-31T04:52:20;19.30;;;8.55;;
23608;SDS011;11982;50.810;4.442;2023-07-31T04:54:45;15.52;;;7.97;;
23608;SDS011;11982;50.810;4.442;2023-07-31T04:57:11;14.85;;;8.43;;
23608;SDS011;11982;50.810;4.442;2023-07-31T04:59:37;14.52;;;7.55;;
23608;SDS011;11982;50.810;4.442;2023-07-31T05:02:02;19.33;;;9.07;;
23608;SDS011;11982;50.810;4.442;2023-07-31T05:04:28;18.08;;;8.55;;
23608;SDS011;11982;50.810;4.442;2023-07-31T05:06:54;16.90;;;8.02;;
23608;SDS011;11982;50.810;4.442;2023-07-31T05:09:19;19.67;;;8.50;;
23608;SDS011;11982;50.810;4.442;2023-07-31T05:11:45;18.08;;;8.32;;
23608;SDS011;11982;50.810;4.442;2023-07-31T05:14:11;20.58;;;8.40;;
23608;SDS011;11982;50.810;4.442;2023-07-31T05:16:36;21.08;;;9.20;;
23608;SDS011;11982;50.810;4.442;2023-07-31T05:19:02;22.02;;;8.82;;
23608;SDS011;11982;50.810;4.442;2023-07-31T05:21:28;20.63;;;9.05;;
23608;SDS011;11982;50.810;4.442;2023-07-31T05:23:54;14.18;;;8.23;;
23608;SDS011;11982;50.810;4.442;2023-07-31T05:26:19;15.88;;;7.90;;
23608;SDS011;11982;50.810;4.442;2023-07-31T05:28:45;19.80;;;7.93;;
23608;SDS011;11982;50.810;4.442;2023-07-31T05:31:11;17.27;;;8.57;;
23608;SDS011;11982;50.810;4.442;2023-07-31T05:33:36;18.45;;;8.52;;
23608;SDS011;11982;50.810;4.442;2023-07-31T05:36:02;20.35;;;8.52;;
23608;SDS011;11982;50.810;4.442;2023-07-31T05:38:28;14.63;;;8.13;;
23608;SDS011;11982;50.810;4.442;2023-07-31T05:40:59;19.85;;;8.43;;
23608;SDS011;11982;50.810;4.442;2023-07-31T05:43:29;22.23;;;8.43;;
23608;SDS011;11982;50.810;4.442;2023-07-31T05:45:55;25.40;;;8.13;;
23608;SDS011;11982;50.810;4.442;2023-07-31T05:48:26;20.35;;;9.10;;
23608;SDS011;11982;50.810;4.442;2023-07-31T05:50:52;20.02;;;8.30;;
23608;SDS011;11982;50.810;4.442;2023-07-31T05:53:18;17.95;;;8.70;;
23608;SDS011;11982;50.810;4.442;2023-07-31T05:55:43;21.15;;;9.32;;
23608;SDS011;11982;50.810;4.442;2023-07-31T05:58:09;18.17;;;8.90;;
23608;SDS011;11982;50.810;4.442;2023-07-31T06:00:35;24.73;;;8.70;;
23608;SDS011;11982;50.810;4.442;2023-07-31T06:03:01;18.00;;;9.63;;
23608;SDS011;11982;50.810;4.442;2023-07-31T06:05:27;23.98;;;9.20;;
23608;SDS011;11982;50.810;4.442;2023-07-31T06:07:54;22.38;;;9.18;;
23608;SDS011;11982;50.810;4.442;2023-07-31T06:10:20;17.65;;;8.52;;
23608;SDS011;11982;50.810;4.442;2023-07-31T06:12:46;16.83;;;8.48;;
23608;SDS011;11982;50.810;4.442;2023-07-31T06:15:12;19.52;;;8.93;;
23608;SDS011;11982;50.810;4.442;2023-07-31T06:17:37;18.38;;;8.30;;
23608;SDS011;11982;50.810;4.442;2023-07-31T06:20:05;17.15;;;7.70;;
23608;SDS011;11982;50.810;4.442;2023-07-31T06:22:32;16.58;;;8.50;;
23608;SDS011;11982;50.810;4.442;2023-07-31T06:24:58;20.83;;;8.98;;
23608;SDS011;11982;50.810;4.442;2023-07-31T06:27:24;22.17;;;7.68;;
23608;SDS011;11982;50.810;4.442;2023-07-31T06:29:50;24.85;;;9.00;;
23608;SDS011;11982;50.810;4.442;2023-07-31T06:32:15;14.40;;;8.00;;
23608;SDS011;11982;50.810;4.442;2023-07-31T06:34:41;22.73;;;8.63;;
23608;SDS011;11982;50.810;4.442;2023-07-31T06:37:07;20.13;;;8.40;;
23608;SDS011;11982;50.810;4.442;2023-07-31T06:39:32;14.57;;;7.95;;
23608;SDS011;11982;50.810;4.442;2023-07-31T06:41:58;19.67;;;8.20;;
23608;SDS011;11982;50.810;4.442;2023-07-31T06:44:24;21.83;;;7.55;;
23608;SDS011;11982;50.810;4.442;2023-07-31T06:46:49;16.48;;;7.43;;
23608;SDS011;11982;50.810;4.442;2023-07-31T06:49:16;16.80;;;7.53;;
23608;SDS011;11982;50.810;4.442;2023-07-31T06:51:41;15.43;;;7.25;;
23608;SDS011;11982;50.810;4.442;2023-07-31T06:54:10;17.35;;;7.03;;
23608;SDS011;11982;50.810;4.442;2023-07-31T06:56:37;14.95;;;6.40;;
23608;SDS011;11982;50.810;4.442;2023-07-31T06:59:03;13.65;;;6.35;;
23608;SDS011;11982;50.810;4.442;2023-07-31T07:01:29;16.38;;;6.50;;
23608;SDS011;11982;50.810;4.442;2023-07-31T07:03:54;13.55;;;6.40;;
23608;SDS011;11982;50.810;4.442;2023-07-31T07:06:21;14.55;;;6.13;;
23608;SDS011;11982;50.810;4.442;2023-07-31T07:08:47;13.98;;;6.07;;
23608;SDS011;11982;50.810;4.442;2023-07-31T07:11:13;14.02;;;5.70;;
23608;SDS011;11982;50.810;4.442;2023-07-31T07:13:39;13.32;;;5.45;;
23608;SDS011;11982;50.810;4.442;2023-07-31T07:16:04;10.75;;;5.65;;
23608;SDS011;11982;50.810;4.442;2023-07-31T07:18:30;14.15;;;6.00;;
23608;SDS011;11982;50.810;4.442;2023-07-31T07:20:56;10.45;;;5.28;;
23608;SDS011;11982;50.810;4.442;2023-07-31T07:23:23;14.05;;;5.53;;
23608;SDS011;11982;50.810;4.442;2023-07-31T07:25:49;12.77;;;5.20;;
23608;SDS011;11982;50.810;4.442;2023-07-31T07:28:16;13.27;;;5.75;;
23608;SDS011;11982;50.810;4.442;2023-07-31T07:30:42;12.23;;;5.07;;
23608;SDS011;11982;50.810;4.442;2023-07-31T07:33:07;12.23;;;5.05;;
23608;SDS011;11982;50.810;4.442;2023-07-31T07:35:33;11.48;;;4.85;;
23608;SDS011;11982;50.810;4.442;2023-07-31T07:37:59;9.57;;;5.18;;
23608;SDS011;11982;50.810;4.442;2023-07-31T07:40:27;19.08;;;5.15;;
23608;SDS011;11982;50.810;4.442;2023-07-31T07:42:52;12.32;;;4.82;;
23608;SDS011;11982;50.810;4.442;2023-07-31T07:45:18;9.32;;;4.93;;
23608;SDS011;11982;50.810;4.442;2023-07-31T07:47:44;12.15;;;4.95;;
23608;SDS011;11982;50.810;4.442;2023-07-31T07:50:09;9.07;;;5.05;;
23608;SDS011;11982;50.810;4.442;2023-07-31T07:52:35;16.17;;;5.20;;
23608;SDS011;11982;50.810;4.442;2023-07-31T07:55:01;6.72;;;4.35;;
23608;SDS011;11982;50.810;4.442;2023-07-31T07:57:28;12.27;;;4.57;;
23608;SDS011;11982;50.810;4.442;2023-07-31T07:59:53;11.20;;;5.00;;
23608;SDS011;11982;50.810;4.442;2023-07-31T08:02:19;13.52;;;4.97;;
23608;SDS011;11982;50.810;4.442;2023-07-31T08:04:45;10.13;;;5.13;;
23608;SDS011;11982;50.810;4.442;2023-07-31T08:07:23;13.63;;;5.50;;
23608;SDS011;11982;50.810;4.442;2023-07-31T08:09:49;12.60;;;4.97;;
23608;SDS011;11982;50.810;4.442;2023-07-31T08:12:15;14.57;;;5.43;;
23608;SDS011;11982;50.810;4.442;2023-07-31T08:14:41;11.70;;;4.68;;
23608;SDS011;11982;50.810;4.442;2023-07-31T08:17:06;12.13;;;4.38;;
23608;SDS011;11982;50.810;4.442;2023-07-31T08:19:32;11.82;;;4.90;;
23608;SDS011;11982;50.810;4.442;2023-07-31T08:21:58;15.52;;;5.10;;
23608;SDS011;11982;50.810;4.442;2023-07-31T08:24:23;10.43;;;5.03;;
23608;SDS011;11982;50.810;4.442;2023-07-31T08:26:49;12.73;;;4.72;;
23608;SDS011;11982;50.810;4.442;2023-07-31T08:29:15;12.10;;;4.82;;
23608;SDS011;11982;50.810;4.442;2023-07-31T08:31:40;12.25;;;5.03;;
23608;SDS011;11982;50.810;4.442;2023-07-31T08:34:06;14.27;;;4.97;;
23608;SDS011;11982;50.810;4.442;2023-07-31T08:36:32;10.07;;;5.03;;
23608;SDS011;11982;50.810;4.442;2023-07-31T08:38:58;12.07;;;5.13;;
23608;SDS011;11982;50.810;4.442;2023-07-31T08:41:23;13.30;;;5.53;;
23608;SDS011;11982;50.810;4.442;2023-07-31T08:43:49;12.10;;;5.32;;
23608;SDS011;11982;50.810;4.442;2023-07-31T08:46:16;13.45;;;5.80;;
23608;SDS011;11982;50.810;4.442;2023-07-31T08:48:42;12.13;;;5.22;;
23608;SDS011;11982;50.810;4.442;2023-07-31T08:51:09;11.68;;;5.03;;
23608;SDS011;11982;50.810;4.442;2023-07-31T08:53:34;11.07;;;4.90;;
23608;SDS011;11982;50.810;4.442;2023-07-31T08:56:00;10.48;;;5.05;;
23608;SDS011;11982;50.810;4.442;2023-07-31T08:58:31;12.20;;;5.38;;
23608;SDS011;11982;50.810;4.442;2023-07-31T09:00:57;9.32;;;4.95;;
23608;SDS011;11982;50.810;4.442;2023-07-31T09:03:28;11.93;;;5.15;;
23608;SDS011;11982;50.810;4.442;2023-07-31T09:05:58;10.23;;;4.43;;
23608;SDS011;11982;50.810;4.442;2023-07-31T09:08:24;10.68;;;5.78;;
23608;SDS011;11982;50.810;4.442;2023-07-31T09:11:03;9.57;;;5.03;;
23608;SDS011;11982;50.810;4.442;2023-07-31T09:13:33;16.42;;;5.30;;
23608;SDS011;11982;50.810;4.442;2023-07-31T09:15:59;7.68;;;4.53;;
23608;SDS011;11982;50.810;4.442;2023-07-31T09:21:20;11.68;;;5.13;;
23608;SDS011;11982;50.810;4.442;2023-07-31T09:23:46;10.38;;;4.72;;
23608;SDS011;11982;50.810;4.442;2023-07-31T09:26:29;12.45;;;5.45;;
23608;SDS011;11982;50.810;4.442;2023-07-31T09:28:59;11.68;;;5.10;;
23608;SDS011;11982;50.810;4.442;2023-07-31T09:31:59;11.95;;;4.63;;
23608;SDS011;11982;50.810;4.442;2023-07-31T09:34:18;10.55;;;4.70;;
23608;SDS011;11982;50.810;4.442;2023-07-31T09:36:45;8.43;;;4.82;;
23608;SDS011;11982;50.810;4.442;2023-07-31T09:39:13;13.75;;;5.10;;
23608;SDS011;11982;50.810;4.442;2023-07-31T09:41:46;11.55;;;5.85;;
23608;SDS011;11982;50.810;4.442;2023-07-31T09:44:18;14.95;;;5.45;;
23608;SDS011;11982;50.810;4.442;2023-07-31T09:46:44;12.48;;;6.10;;
23608;SDS011;11982;50.810;4.442;2023-07-31T09:49:11;12.43;;;6.13;;
23608;SDS011;11982;50.810;4.442;2023-07-31T09:51:38;11.57;;;5.88;;
23608;SDS011;11982;50.810;4.442;2023-07-31T09:56:41;17.80;;;7.03;;
23608;SDS011;11982;50.810;4.442;2023-07-31T09:59:11;16.27;;;6.07;;
23608;SDS011;11982;50.810;4.442;2023-07-31T10:01:38;12.43;;;6.13;;
23608;SDS011;11982;50.810;4.442;2023-07-31T10:04:05;11.73;;;6.57;;
23608;SDS011;11982;50.810;4.442;2023-07-31T10:06:34;17.88;;;6.65;;
23608;SDS011;11982;50.810;4.442;2023-07-31T10:09:02;17.70;;;7.07;;
23608;SDS011;11982;50.810;4.442;2023-07-31T10:11:30;16.90;;;7.10;;
23608;SDS011;11982;50.810;4.442;2023-07-31T10:14:03;17.02;;;7.20;;
23608;SDS011;11982;50.810;4.442;2023-07-31T10:16:31;13.80;;;7.25;;
23608;SDS011;11982;50.810;4.442;2023-07-31T10:18:57;17.33;;;7.25;;
23608;SDS011;11982;50.810;4.442;2023-07-31T10:21:24;15.52;;;7.53;;
23608;SDS011;11982;50.810;4.442;2023-07-31T10:23:50;15.00;;;7.82;;
23608;SDS011;11982;50.810;4.442;2023-07-31T10:26:17;15.73;;;7.05;;
23608;SDS011;11982;50.810;4.442;2023-07-31T10:28:45;14.40;;;7.07;;
23608;SDS011;11982;50.810;4.442;2023-07-31T10:31:13;18.17;;;7.72;;
23608;SDS011;11982;50.810;4.442;2023-07-31T10:33:40;12.00;;;6.55;;
23608;SDS011;11982;50.810;4.442;2023-07-31T10:36:13;16.38;;;6.80;;
23608;SDS011;11982;50.810;4.442;2023-07-31T10:38:42;15.75;;;6.50;;
23608;SDS011;11982;50.810;4.442;2023-07-31T10:41:08;19.48;;;7.65;;
23608;SDS011;11982;50.810;4.442;2023-07-31T10:43:35;21.40;;;6.78;;
23608;SDS011;11982;50.810;4.442;2023-07-31T10:46:08;11.52;;;6.40;;
23608;SDS011;11982;50.810;4.442;2023-07-31T10:48:34;20.48;;;7.45;;
23608;SDS011;11982;50.810;4.442;2023-07-31T10:51:02;20.83;;;7.45;;
23608;SDS011;11982;50.810;4.442;2023-07-31T10:53:37;15.90;;;7.30;;
23608;SDS011;11982;50.810;4.442;2023-07-31T10:56:04;19.48;;;7.55;;
23608;SDS011;11982;50.810;4.442;2023-07-31T10:58:31;13.68;;;7.07;;
23608;SDS011;11982;50.810;4.442;2023-07-31T11:00:58;17.45;;;7.30;;
23608;SDS011;11982;50.810;4.442;2023-07-31T11:03:26;15.48;;;6.80;;
23608;SDS011;11982;50.810;4.442;2023-07-31T11:09:29;16.33;;;6.18;;
23608;SDS011;11982;50.810;4.442;2023-07-31T11:11:57;17.83;;;7.57;;
23608;SDS011;11982;50.810;4.442;2023-07-31T11:20:47;19.50;;;7.20;;
23608;SDS011;11982;50.810;4.442;2023-07-31T11:23:17;15.75;;;6.28;;
23608;SDS011;11982;50.810;4.442;2023-07-31T11:25:44;12.07;;;6.50;;
23608;SDS011;11982;50.810;4.442;2023-07-31T11:28:13;14.90;;;6.07;;
23608;SDS011;11982;50.810;4.442;2023-07-31T11:30:41;15.45;;;6.70;;
23608;SDS011;11982;50.810;4.442;2023-07-31T11:33:08;18.42;;;6.93;;
23608;SDS011;11982;50.810;4.442;2023-07-31T11:35:36;12.38;;;6.32;;
23608;SDS011;11982;50.810;4.442;2023-07-31T11:38:10;13.02;;;6.18;;
23608;SDS011;11982;50.810;4.442;2023-07-31T11:40:41;13.40;;;6.07;;
23608;SDS011;11982;50.810;4.442;2023-07-31T11:43:07;17.73;;;6.32;;
23608;SDS011;11982;50.810;4.442;2023-07-31T11:45:33;15.90;;;6.60;;
23608;SDS011;11982;50.810;4.442;2023-07-31T11:48:00;14.90;;;6.28;;
23608;SDS011;11982;50.810;4.442;2023-07-31T11:50:26;14.80;;;5.95;;
23608;SDS011;11982;50.810;4.442;2023-07-31T11:52:53;15.55;;;6.25;;
23608;SDS011;11982;50.810;4.442;2023-07-31T11:55:24;11.07;;;6.25;;
23608;SDS011;11982;50.810;4.442;2023-07-31T11:57:51;18.70;;;6.25;;
23608;SDS011;11982;50.810;4.442;2023-07-31T12:00:19;13.38;;;5.80;;
23608;SDS011;11982;50.810;4.442;2023-07-31T12:02:45;13.98;;;6.15;;
23608;SDS011;11982;50.810;4.442;2023-07-31T12:05:12;13.02;;;5.85;;
23608;SDS011;11982;50.810;4.442;2023-07-31T12:07:45;13.18;;;6.18;;
23608;SDS011;11982;50.810;4.442;2023-07-31T12:10:22;11.80;;;5.50;;
23608;SDS011;11982;50.810;4.442;2023-07-31T12:13:01;15.65;;;5.68;;
23608;SDS011;11982;50.810;4.442;2023-07-31T12:15:38;14.75;;;6.43;;
23608;SDS011;11982;50.810;4.442;2023-07-31T12:18:06;13.60;;;5.65;;
23608;SDS011;11982;50.810;4.442;2023-07-31T12:20:33;14.68;;;6.20;;
23608;SDS011;11982;50.810;4.442;2023-07-31T12:22:59;15.77;;;6.07;;
23608;SDS011;11982;50.810;4.442;2023-07-31T12:25:29;12.82;;;6.72;;
23608;SDS011;11982;50.810;4.442;2023-07-31T12:28:05;11.23;;;5.63;;
23608;SDS011;11982;50.810;4.442;2023-07-31T12:30:37;13.02;;;5.97;;
23608;SDS011;11982;50.810;4.442;2023-07-31T12:33:05;12.85;;;6.53;;
23608;SDS011;11982;50.810;4.442;2023-07-31T12:35:35;13.23;;;6.07;;
23608;SDS011;11982;50.810;4.442;2023-07-31T12:38:02;16.35;;;6.35;;
23608;SDS011;11982;50.810;4.442;2023-07-31T12:40:28;12.43;;;6.10;;
23608;SDS011;11982;50.810;4.442;2023-07-31T12:42:53;14.40;;;6.90;;
23608;SDS011;11982;50.810;4.442;2023-07-31T12:45:19;10.38;;;6.28;;
23608;SDS011;11982;50.810;4.442;2023-07-31T12:47:46;16.40;;;6.38;;
23608;SDS011;11982;50.810;4.442;2023-07-31T12:50:12;17.95;;;6.97;;
23608;SDS011;11982;50.810;4.442;2023-07-31T12:52:37;13.65;;;7.00;;
23608;SDS011;11982;50.810;4.442;2023-07-31T12:55:03;18.35;;;6.32;;
23608;SDS011;11982;50.810;4.442;2023-07-31T12:57:29;12.32;;;5.68;;
23608;SDS011;11982;50.810;4.442;2023-07-31T12:59:55;13.85;;;6.25;;
23608;SDS011;11982;50.810;4.442;2023-07-31T13:02:21;12.35;;;5.82;;
23608;SDS011;11982;50.810;4.442;2023-07-31T13:04:47;15.13;;;6.07;;
23608;SDS011;11982;50.810;4.442;2023-07-31T13:07:15;15.50;;;6.30;;
23608;SDS011;11982;50.810;4.442;2023-07-31T13:09:41;12.80;;;5.80;;
23608;SDS011;11982;50.810;4.442;2023-07-31T13:12:07;13.35;;;5.00;;
23608;SDS011;11982;50.810;4.442;2023-07-31T13:19:53;12.60;;;5.80;;
23608;SDS011;11982;50.810;4.442;2023-07-31T13:24:56;13.93;;;6.03;;
23608;SDS011;11982;50.810;4.442;2023-07-31T13:27:22;14.70;;;6.20;;
23608;SDS011;11982;50.810;4.442;2023-07-31T13:29:49;13.73;;;5.28;;
23608;SDS011;11982;50.810;4.442;2023-07-31T13:32:21;12.43;;;5.82;;
23608;SDS011;11982;50.810;4.442;2023-07-31T13:34:47;11.32;;;5.55;;
23608;SDS011;11982;50.810;4.442;2023-07-31T13:37:14;12.98;;;6.93;;
23608;SDS011;11982;50.810;4.442;2023-07-31T13:39:40;11.65;;;5.45;;
23608;SDS011;11982;50.810;4.442;2023-07-31T13:42:06;13.10;;;5.50;;
23608;SDS011;11982;50.810;4.442;2023-07-31T13:44:37;11.38;;;5.20;;
23608;SDS011;11982;50.810;4.442;2023-07-31T13:47:06;12.90;;;4.97;;
23608;SDS011;11982;50.810;4.442;2023-07-31T13:49:33;9.70;;;5.45;;
23608;SDS011;11982;50.810;4.442;2023-07-31T13:52:00;11.63;;;5.72;;
23608;SDS011;11982;50.810;4.442;2023-07-31T13:54:26;9.07;;;5.20;;
23608;SDS011;11982;50.810;4.442;2023-07-31T13:56:52;13.60;;;5.78;;
23608;SDS011;11982;50.810;4.442;2023-07-31T13:59:18;10.98;;;5.32;;
23608;SDS011;11982;50.810;4.442;2023-07-31T14:01:44;13.48;;;6.13;;
23608;SDS011;11982;50.810;4.442;2023-07-31T14:04:10;8.07;;;4.60;;
23608;SDS011;11982;50.810;4.442;2023-07-31T14:06:36;9.02;;;4.90;;
23608;SDS011;11982;50.810;4.442;2023-07-31T14:09:02;8.52;;;5.03;;
23608;SDS011;11982;50.810;4.442;2023-07-31T14:11:28;8.48;;;5.03;;
23608;SDS011;11982;50.810;4.442;2023-07-31T14:13:55;12.23;;;5.30;;
23608;SDS011;11982;50.810;4.442;2023-07-31T14:16:22;9.43;;;5.22;;
23608;SDS011;11982;50.810;4.442;2023-07-31T14:18:48;14.35;;;6.22;;
23608;SDS011;11982;50.810;4.442;2023-07-31T14:21:14;14.43;;;5.78;;
23608;SDS011;11982;50.810;4.442;2023-07-31T14:23:40;15.02;;;6.03;;
23608;SDS011;11982;50.810;4.442;2023-07-31T14:26:06;13.80;;;8.48;;
23608;SDS011;11982;50.810;4.442;2023-07-31T14:28:32;11.95;;;5.95;;
23608;SDS011;11982;50.810;4.442;2023-07-31T14:30:58;12.13;;;5.25;;
23608;SDS011;11982;50.810;4.442;2023-07-31T14:33:24;13.73;;;5.72;;
23608;SDS011;11982;50.810;4.442;2023-07-31T14:35:50;8.30;;;4.80;;
23608;SDS011;11982;50.810;4.442;2023-07-31T14:38:15;11.55;;;4.95;;
23608;SDS011;11982;50.810;4.442;2023-07-31T14:40:41;12.40;;;5.40;;
23608;SDS011;11982;50.810;4.442;2023-07-31T14:43:07;10.15;;;4.68;;
23608;SDS011;11982;50.810;4.442;2023-07-31T14:45:33;9.02;;;4.40;;
23608;SDS011;11982;50.810;4.442;2023-07-31T14:47:58;13.55;;;7.68;;
23608;SDS011;11982;50.810;4.442;2023-07-31T14:50:24;26.25;;;18.27;;
23608;SDS011;11982;50.810;4.442;2023-07-31T14:52:51;9.63;;;5.15;;
23608;SDS011;11982;50.810;4.442;2023-07-31T14:55:17;8.40;;;3.63;;
23608;SDS011;11982;50.810;4.442;2023-07-31T14:57:43;8.40;;;4.43;;
23608;SDS011;11982;50.810;4.442;2023-07-31T15:00:09;7.30;;;4.55;;
23608;SDS011;11982;50.810;4.442;2023-07-31T15:02:38;7.80;;;4.20;;